Time;durP1;ratioP1;P1;durP2;ratioP2;P2;SDS_P1;SDS_P2;PMS_P1;PMS_P2;Temp;Humidity;BMP_temperature;BMP_pressure;BME280_temperature;BME280_humidity;BME280_pressure;Samples;Min_cycle;Max_cycle;Signal;HPM_P1;HPM_P2
2022/04/19 00:01:33;;;;;;;10.20;7.77;;;;;;;;;;750077;184;919192;-64
2022/04/19 00:03:59;;;;;;;17.57;9.30;;;;;;;;;;749164;185;1023098;-64
2022/04/19 00:06:25;;;;;;;13.00;9.07;;;;;;;;;;754493;184;919328;-64
2022/04/19 00:08:51;;;;;;;14.93;9.40;;;;;;;;;;757688;184;919110;-63
2022/04/19 00:11:16;;;;;;;15.40;9.93;;;;;;;;;;755110;184;1021527;-64
2022/04/19 00:13:43;;;;;;;11.95;8.85;;;;;;;;;;762436;183;918834;-62
2022/04/19 00:16:08;;;;;;;15.90;10.20;;;;;;;;;;759432;182;919897;-63
2022/04/19 00:18:34;;;;;;;11.37;8.37;;;;;;;;;;749432;183;919649;-63
2022/04/19 00:21:02;;;;;;;13.40;9.80;;;;;;;;;;749637;185;919036;-64
2022/04/19 00:23:26;;;;;;;19.93;10.03;;;;;;;;;;765524;184;919396;-63
2022/04/19 00:25:52;;;;;;;15.80;10.73;;;;;;;;;;760820;184;918537;-63
2022/04/19 00:28:18;;;;;;;15.83;9.93;;;;;;;;;;760492;183;919787;-63
2022/04/19 00:30:43;;;;;;;14.23;10.17;;;;;;;;;;766615;183;918185;-63
2022/04/19 00:33:09;;;;;;;12.70;10.00;;;;;;;;;;757776;183;919306;-61
2022/04/19 00:35:35;;;;;;;16.10;8.93;;;;;;;;;;748044;184;920048;-63
2022/04/19 00:38:01;;;;;;;15.83;10.93;;;;;;;;;;758813;184;920200;-62
2022/04/19 00:40:27;;;;;;;18.57;11.47;;;;;;;;;;755296;184;919109;-63
2022/04/19 00:42:54;;;;;;;18.07;10.50;;;;;;;;;;755679;184;918898;-63
2022/04/19 00:45:22;;;;;;;13.43;10.03;;;;;;;;;;754272;184;921926;-64
2022/04/19 00:47:46;;;;;;;15.80;9.23;;;;;;;;;;764084;184;918490;-63
2022/04/19 00:50:13;;;;;;;11.60;9.50;;;;;;;;;;762031;183;923749;-62
2022/04/19 00:52:39;;;;;;;14.13;9.53;;;;;;;;;;758573;183;918831;-62
2022/04/19 00:55:07;;;;;;;17.03;11.10;;;;;;;;;;765516;183;939810;-62
2022/04/19 00:57:32;;;;;;;14.50;10.73;;;;;;;;;;754858;183;918576;-67
2022/04/19 00:59:57;;;;;;;16.40;10.83;;;;;;;;;;757720;184;919497;-63
2022/04/19 01:02:24;;;;;;;14.98;10.27;;;;;;;;;;755761;183;918216;-63
2022/04/19 01:04:49;;;;;;;19.33;12.13;;;;;;;;;;761866;184;915841;-62
2022/04/19 01:07:16;;;;;;;12.70;9.50;;;;;;;;;;758015;184;914956;-63
2022/04/19 01:09:42;;;;;;;18.77;11.47;;;;;;;;;;757513;184;1017800;-63
2022/04/19 01:14:40;;;;;;;18.17;12.00;;;;;;;;;;751867;185;918793;-62
2022/04/19 01:17:07;;;;;;;15.67;11.23;;;;;;;;;;751325;184;919376;-62
2022/04/19 01:19:35;;;;;;;18.03;12.70;;;;;;;;;;758315;184;918838;-63
2022/04/19 01:22:01;;;;;;;19.60;11.93;;;;;;;;;;762047;184;918797;-63
2022/04/19 01:24:27;;;;;;;14.40;11.47;;;;;;;;;;757580;184;938131;-63
2022/04/19 01:26:53;;;;;;;15.23;10.57;;;;;;;;;;759584;183;918705;-62
2022/04/19 01:29:19;;;;;;;16.80;10.17;;;;;;;;;;761821;183;919260;-64
2022/04/19 01:31:45;;;;;;;17.37;10.70;;;;;;;;;;762245;183;918239;-62
2022/04/19 01:34:11;;;;;;;16.07;12.10;;;;;;;;;;758848;184;919603;-64
2022/04/19 01:36:37;;;;;;;18.77;12.27;;;;;;;;;;764991;184;918222;-63
2022/04/19 01:39:03;;;;;;;16.50;11.00;;;;;;;;;;760132;183;919428;-62
2022/04/19 01:41:29;;;;;;;18.70;11.93;;;;;;;;;;752611;183;919419;-63
2022/04/19 01:43:55;;;;;;;14.60;10.93;;;;;;;;;;760739;183;918457;-64
2022/04/19 01:46:23;;;;;;;20.33;10.97;;;;;;;;;;764175;183;919026;-63
2022/04/19 01:48:46;;;;;;;15.40;11.32;;;;;;;;;;760605;184;918968;-63
2022/04/19 01:51:14;;;;;;;15.02;11.68;;;;;;;;;;758635;184;918979;-63
2022/04/19 01:53:38;;;;;;;12.47;10.27;;;;;;;;;;762103;183;919177;-62
2022/04/19 01:56:04;;;;;;;12.90;10.43;;;;;;;;;;759675;184;918854;-63
2022/04/19 01:58:31;;;;;;;16.00;11.00;;;;;;;;;;762357;183;919519;-63
2022/04/19 02:00:56;;;;;;;13.20;8.77;;;;;;;;;;765548;183;919011;-63
2022/04/19 02:03:22;;;;;;;14.23;10.50;;;;;;;;;;758073;184;920347;-62
2022/04/19 02:05:48;;;;;;;17.90;11.30;;;;;;;;;;758225;184;919259;-63
2022/04/19 02:08:13;;;;;;;16.10;11.37;;;;;;;;;;756920;183;918190;-62
2022/04/19 02:10:39;;;;;;;15.37;11.50;;;;;;;;;;752840;187;918873;-62
2022/04/19 02:13:05;;;;;;;14.53;11.40;;;;;;;;;;754667;183;918794;-63
2022/04/19 02:15:31;;;;;;;15.80;10.30;;;;;;;;;;751166;183;918274;-63
2022/04/19 02:17:57;;;;;;;14.00;10.87;;;;;;;;;;752203;184;916069;-63
2022/04/19 02:20:23;;;;;;;16.30;10.60;;;;;;;;;;744504;187;985087;-63
2022/04/19 02:22:48;;;;;;;16.83;11.23;;;;;;;;;;749391;184;915962;-63
2022/04/19 02:25:14;;;;;;;17.03;12.03;;;;;;;;;;757699;185;918840;-61
2022/04/19 02:27:40;;;;;;;14.47;9.50;;;;;;;;;;759358;184;919589;-63
2022/04/19 02:30:13;;;;;;;13.50;10.30;;;;;;;;;;763212;183;919448;-64
2022/04/19 02:32:33;;;;;;;20.50;12.00;;;;;;;;;;758034;183;919116;-62
2022/04/19 02:34:59;;;;;;;16.90;12.53;;;;;;;;;;763748;183;917361;-63
2022/04/19 02:37:25;;;;;;;19.20;12.90;;;;;;;;;;752406;185;1019724;-62
2022/04/19 02:39:51;;;;;;;19.53;12.30;;;;;;;;;;762968;182;919669;-63
2022/04/19 02:42:16;;;;;;;19.50;12.07;;;;;;;;;;769209;182;897609;-64
2022/04/19 02:44:42;;;;;;;16.27;11.57;;;;;;;;;;751279;184;915803;-62
2022/04/19 02:47:08;;;;;;;16.77;12.90;;;;;;;;;;750688;184;915763;-63
2022/04/19 02:49:34;;;;;;;23.90;14.23;;;;;;;;;;761731;184;916132;-63
2022/04/19 02:52:00;;;;;;;18.00;12.63;;;;;;;;;;755428;184;626572;-63
2022/04/19 02:54:26;;;;;;;23.10;14.50;;;;;;;;;;763354;184;636920;-63
2022/04/19 02:56:51;;;;;;;20.43;13.23;;;;;;;;;;762526;184;660843;-63
2022/04/19 02:59:17;;;;;;;20.23;12.77;;;;;;;;;;749149;187;919266;-63
2022/04/19 03:01:43;;;;;;;21.13;14.37;;;;;;;;;;757310;183;919344;-64
2022/04/19 03:04:09;;;;;;;19.07;12.67;;;;;;;;;;754123;184;919074;-63
2022/04/19 03:06:35;;;;;;;18.50;15.05;;;;;;;;;;769227;179;919409;-63
2022/04/19 03:09:01;;;;;;;18.53;13.50;;;;;;;;;;752150;184;922491;-63
2022/04/19 03:11:27;;;;;;;21.27;14.27;;;;;;;;;;749827;184;923689;-62
2022/04/19 03:13:52;;;;;;;20.90;12.88;;;;;;;;;;760843;184;918844;-63
2022/04/19 03:16:18;;;;;;;15.80;11.90;;;;;;;;;;751809;185;909448;-64
2022/04/19 03:18:44;;;;;;;18.73;12.87;;;;;;;;;;754970;184;919483;-63
2022/04/19 03:21:10;;;;;;;22.53;16.87;;;;;;;;;;759370;184;918578;-66
2022/04/19 03:28:40;;;;;;;22.37;13.50;;;;;;;;;;753536;183;918359;-66
2022/04/19 03:31:05;;;;;;;18.23;13.43;;;;;;;;;;761003;184;918679;-63
2022/04/19 03:33:32;;;;;;;20.10;13.53;;;;;;;;;;760379;183;932516;-63
2022/04/19 03:35:57;;;;;;;22.27;17.03;;;;;;;;;;755850;184;920182;-64
2022/04/19 03:38:22;;;;;;;24.73;17.37;;;;;;;;;;756550;183;919063;-64
2022/04/19 03:40:48;;;;;;;25.27;18.20;;;;;;;;;;738235;187;919119;-62
2022/04/19 03:43:14;;;;;;;33.50;28.50;;;;;;;;;;758934;182;919647;-64
2022/04/19 03:45:40;;;;;;;26.70;17.95;;;;;;;;;;754064;183;1021195;-64
2022/04/19 03:48:06;;;;;;;21.20;16.20;;;;;;;;;;758997;183;917797;-64
2022/04/19 03:50:32;;;;;;;21.07;15.70;;;;;;;;;;756826;183;918875;-64
2022/04/19 03:52:58;;;;;;;23.70;14.57;;;;;;;;;;757229;184;918336;-64
2022/04/19 03:55:24;;;;;;;23.20;15.60;;;;;;;;;;763276;182;921639;-64
2022/04/19 03:57:50;;;;;;;22.80;15.70;;;;;;;;;;752689;183;1083203;-64
2022/04/19 04:00:16;;;;;;;21.87;16.33;;;;;;;;;;755263;183;919585;-63
2022/04/19 04:02:41;;;;;;;21.40;16.47;;;;;;;;;;755389;184;923789;-63
2022/04/19 04:05:07;;;;;;;23.40;16.13;;;;;;;;;;738121;190;918518;-65
2022/04/19 04:07:37;;;;;;;22.93;16.83;;;;;;;;;;760603;182;919971;-64
2022/04/19 04:09:59;;;;;;;21.00;15.40;;;;;;;;;;753864;180;945262;-62
2022/04/19 04:12:25;;;;;;;19.60;16.30;;;;;;;;;;761540;183;918431;-63
2022/04/19 04:14:51;;;;;;;19.80;15.67;;;;;;;;;;753822;184;919688;-64
2022/04/19 04:17:17;;;;;;;19.47;16.30;;;;;;;;;;752673;184;919758;-64
2022/04/19 04:19:43;;;;;;;20.58;15.07;;;;;;;;;;761286;184;922472;-64
2022/04/19 04:22:08;;;;;;;20.20;15.70;;;;;;;;;;760716;183;626887;-64
2022/04/19 04:24:34;;;;;;;21.77;14.27;;;;;;;;;;761077;183;629458;-65
2022/04/19 04:27:00;;;;;;;22.53;17.90;;;;;;;;;;759906;183;635268;-64
2022/04/19 04:29:26;;;;;;;28.70;15.00;;;;;;;;;;762030;184;620234;-64
2022/04/19 04:31:52;;;;;;;22.90;16.43;;;;;;;;;;757442;184;635367;-63
2022/04/19 04:34:18;;;;;;;19.87;15.37;;;;;;;;;;750601;184;919325;-63
2022/04/19 04:36:44;;;;;;;24.70;16.93;;;;;;;;;;755102;185;919814;-64
2022/04/19 04:39:09;;;;;;;22.20;15.60;;;;;;;;;;755192;184;918206;-64
2022/04/19 04:41:35;;;;;;;25.00;17.27;;;;;;;;;;758202;185;917152;-63
2022/04/19 04:44:01;;;;;;;21.73;15.60;;;;;;;;;;764101;184;918845;-63
2022/04/19 04:51:30;;;;;;;36.00;21.03;;;;;;;;;;754705;184;917709;-64
2022/04/19 04:53:56;;;;;;;29.50;18.10;;;;;;;;;;760933;183;635480;-64
2022/04/19 04:56:23;;;;;;;22.77;16.80;;;;;;;;;;759679;184;623623;-63
2022/04/19 04:58:48;;;;;;;29.00;18.33;;;;;;;;;;760294;183;645831;-63
2022/04/19 05:01:14;;;;;;;31.33;20.43;;;;;;;;;;765141;183;911201;-64
2022/04/19 05:03:40;;;;;;;30.20;19.83;;;;;;;;;;756827;182;918800;-63
2022/04/19 05:06:05;;;;;;;26.40;20.27;;;;;;;;;;754698;182;917658;-63
2022/04/19 05:08:31;;;;;;;31.70;22.00;;;;;;;;;;758341;183;918842;-63
2022/04/19 05:10:57;;;;;;;33.17;21.27;;;;;;;;;;760321;183;919409;-63
2022/04/19 05:13:23;;;;;;;31.47;21.67;;;;;;;;;;749971;184;1021088;-63
2022/04/19 05:15:49;;;;;;;28.55;21.10;;;;;;;;;;755243;180;918674;-63
2022/04/19 05:18:16;;;;;;;29.27;22.37;;;;;;;;;;763675;184;923826;-62
2022/04/19 05:20:41;;;;;;;64.90;41.53;;;;;;;;;;759101;180;920210;-63
2022/04/19 05:23:07;;;;;;;101.97;56.23;;;;;;;;;;760250;183;1020679;-63
2022/04/19 05:25:33;;;;;;;71.07;42.97;;;;;;;;;;761652;184;918815;-63
2022/04/19 05:27:59;;;;;;;76.70;47.13;;;;;;;;;;756870;184;918154;-63
2022/04/19 05:30:25;;;;;;;34.13;26.80;;;;;;;;;;747276;184;918547;-62
2022/04/19 05:32:51;;;;;;;72.97;42.30;;;;;;;;;;750812;183;918164;-63
2022/04/19 05:35:16;;;;;;;29.87;20.47;;;;;;;;;;739545;186;918002;-64
2022/04/19 05:37:42;;;;;;;31.97;21.50;;;;;;;;;;727674;190;919098;-61
2022/04/19 05:40:09;;;;;;;26.80;18.95;;;;;;;;;;750669;185;918958;-63
2022/04/19 05:42:35;;;;;;;34.07;23.87;;;;;;;;;;761400;184;911232;-63
2022/04/19 05:45:00;;;;;;;27.17;19.50;;;;;;;;;;743060;188;919407;-63
2022/04/19 05:47:26;;;;;;;32.97;23.17;;;;;;;;;;747332;187;915605;-62
2022/04/19 05:49:52;;;;;;;26.23;18.63;;;;;;;;;;757594;184;915620;-61
2022/04/19 05:52:18;;;;;;;23.70;18.77;;;;;;;;;;760165;183;917070;-63
2022/04/19 05:54:44;;;;;;;25.42;16.77;;;;;;;;;;757641;183;1031451;-64
2022/04/19 05:57:10;;;;;;;27.20;18.33;;;;;;;;;;755442;184;907324;-63
2022/04/19 05:59:36;;;;;;;28.13;18.10;;;;;;;;;;738047;190;908581;-63
2022/04/19 06:07:05;;;;;;;30.33;18.63;;;;;;;;;;758054;184;918716;-60
2022/04/19 06:09:31;;;;;;;24.17;18.13;;;;;;;;;;745817;187;918498;-63
2022/04/19 06:11:56;;;;;;;28.00;19.93;;;;;;;;;;734153;190;919444;-62
2022/04/19 06:14:22;;;;;;;28.94;18.82;;;;;;;;;;755655;183;1021111;-62
2022/04/19 06:16:48;;;;;;;27.10;17.20;;;;;;;;;;764370;182;920076;-62
2022/04/19 06:19:14;;;;;;;28.67;18.63;;;;;;;;;;755988;183;919282;-63
2022/04/19 06:21:41;;;;;;;32.97;19.27;;;;;;;;;;758115;183;918396;-63
2022/04/19 06:24:06;;;;;;;24.90;18.83;;;;;;;;;;765288;184;930608;-63
2022/04/19 06:26:32;;;;;;;19.83;13.37;;;;;;;;;;756467;184;919830;-63
2022/04/19 06:28:58;;;;;;;16.30;13.57;;;;;;;;;;755220;184;918806;-62
2022/04/19 06:31:24;;;;;;;20.07;12.47;;;;;;;;;;760092;184;1002215;-62
2022/04/19 06:33:50;;;;;;;21.50;13.00;;;;;;;;;;758323;183;919261;-62
2022/04/19 06:36:17;;;;;;;19.77;12.80;;;;;;;;;;753828;184;919097;-64
2022/04/19 06:38:41;;;;;;;18.50;10.43;;;;;;;;;;755719;184;915798;-63
2022/04/19 06:41:11;;;;;;;16.40;11.87;;;;;;;;;;759879;184;915382;-63
2022/04/19 06:43:33;;;;;;;16.15;12.05;;;;;;;;;;759928;184;915274;-63
2022/04/19 06:45:59;;;;;;;20.67;10.67;;;;;;;;;;760873;183;918773;-62
2022/04/19 06:48:25;;;;;;;13.87;9.83;;;;;;;;;;760280;184;918538;-62
2022/04/19 06:50:51;;;;;;;16.90;10.77;;;;;;;;;;761552;183;918018;-64
2022/04/19 06:53:16;;;;;;;17.73;10.73;;;;;;;;;;754441;183;919862;-63
2022/04/19 06:55:42;;;;;;;13.87;9.67;;;;;;;;;;761220;184;919314;-63
2022/04/19 06:58:09;;;;;;;16.47;8.87;;;;;;;;;;755223;184;920183;-62
2022/04/19 07:00:34;;;;;;;13.23;7.73;;;;;;;;;;754213;184;922640;-63
2022/04/19 07:03:00;;;;;;;14.27;7.43;;;;;;;;;;754360;184;917919;-63
2022/04/19 07:05:26;;;;;;;8.30;5.87;;;;;;;;;;740218;188;918485;-63
2022/04/19 07:07:51;;;;;;;9.40;6.00;;;;;;;;;;748837;186;918758;-62
2022/04/19 07:10:17;;;;;;;11.83;6.50;;;;;;;;;;753725;181;919741;-63
2022/04/19 07:12:44;;;;;;;9.27;6.40;;;;;;;;;;760794;184;919488;-63
2022/04/19 07:15:09;;;;;;;10.63;6.20;;;;;;;;;;756672;183;919297;-64
2022/04/19 07:17:37;;;;;;;9.43;5.90;;;;;;;;;;757352;183;919565;-63
2022/04/19 07:27:38;;;;;;;17.57;6.67;;;;;;;;;;757896;184;918117;-63
2022/04/19 07:30:05;;;;;;;9.80;8.10;;;;;;;;;;760561;182;918638;-63
2022/04/19 07:32:30;;;;;;;14.23;8.20;;;;;;;;;;765120;183;919756;-62
2022/04/19 07:34:56;;;;;;;10.30;6.87;;;;;;;;;;757602;184;919567;-62
2022/04/19 07:37:22;;;;;;;11.50;7.40;;;;;;;;;;750069;184;919075;-61
2022/04/19 07:39:48;;;;;;;19.30;9.45;;;;;;;;;;754619;184;919142;-62
2022/04/19 07:42:13;;;;;;;9.23;6.20;;;;;;;;;;748018;184;919400;-62
2022/04/19 07:44:44;;;;;;;9.00;5.93;;;;;;;;;;749974;184;920358;-62
2022/04/19 07:47:05;;;;;;;7.33;5.53;;;;;;;;;;754797;184;918613;-60
2022/04/19 07:49:31;;;;;;;10.53;6.00;;;;;;;;;;750762;184;919460;-61
2022/04/19 07:51:57;;;;;;;14.53;7.50;;;;;;;;;;757521;184;920067;-61
2022/04/19 07:54:23;;;;;;;11.97;8.40;;;;;;;;;;758226;184;918089;-60
2022/04/19 07:56:49;;;;;;;12.10;6.90;;;;;;;;;;764350;183;918305;-60
2022/04/19 07:59:14;;;;;;;16.10;12.23;;;;;;;;;;751573;183;919970;-60
2022/04/19 08:01:40;;;;;;;11.30;6.70;;;;;;;;;;751337;184;919814;-60
2022/04/19 08:04:06;;;;;;;10.67;7.67;;;;;;;;;;760462;184;918702;-60
2022/04/19 08:06:32;;;;;;;8.50;6.60;;;;;;;;;;754182;183;918515;-60
2022/04/19 08:08:58;;;;;;;16.80;10.40;;;;;;;;;;755646;183;919610;-61
2022/04/19 08:11:24;;;;;;;9.57;6.50;;;;;;;;;;761221;183;919586;-60
2022/04/19 08:13:49;;;;;;;13.00;8.57;;;;;;;;;;756673;184;919487;-60
2022/04/19 08:16:15;;;;;;;16.03;11.43;;;;;;;;;;755862;184;919131;-60
2022/04/19 08:18:41;;;;;;;13.15;8.43;;;;;;;;;;762043;184;925427;-60
2022/04/19 08:21:07;;;;;;;26.30;15.50;;;;;;;;;;755035;184;936389;-61
2022/04/19 08:23:33;;;;;;;15.63;9.80;;;;;;;;;;765297;182;918476;-59
2022/04/19 08:25:59;;;;;;;20.33;13.73;;;;;;;;;;759285;184;918858;-60
2022/04/19 08:28:24;;;;;;;13.03;10.67;;;;;;;;;;761946;184;920111;-60
2022/04/19 08:30:50;;;;;;;10.07;6.93;;;;;;;;;;758314;183;919104;-60
2022/04/19 08:33:16;;;;;;;9.30;5.97;;;;;;;;;;760222;183;919394;-60
2022/04/19 08:35:42;;;;;;;21.00;12.50;;;;;;;;;;766221;183;917585;-60
2022/04/19 08:38:08;;;;;;;30.43;19.80;;;;;;;;;;763418;182;918727;-60
2022/04/19 08:40:34;;;;;;;22.20;13.30;;;;;;;;;;758223;182;919901;-61
2022/04/19 08:43:00;;;;;;;16.77;12.20;;;;;;;;;;758934;184;919992;-59
2022/04/19 08:45:26;;;;;;;14.87;9.67;;;;;;;;;;754630;183;919338;-60
2022/04/19 08:47:51;;;;;;;15.60;10.13;;;;;;;;;;758919;184;919608;-59
2022/04/19 08:50:17;;;;;;;11.98;9.23;;;;;;;;;;755440;184;920227;-59
2022/04/19 08:52:43;;;;;;;18.20;10.80;;;;;;;;;;747945;186;1003451;-60
2022/04/19 08:57:40;;;;;;;11.80;8.20;;;;;;;;;;728969;190;1019174;-59
2022/04/19 09:00:07;;;;;;;12.57;8.60;;;;;;;;;;750347;184;918843;-61
2022/04/19 09:02:33;;;;;;;12.70;8.33;;;;;;;;;;755146;184;919536;-60
2022/04/19 09:05:16;;;;;;;13.45;10.35;;;;;;;;;;753686;186;919139;-60
2022/04/19 09:07:41;;;;;;;10.93;7.67;;;;;;;;;;753407;184;919531;-60
2022/04/19 09:10:11;;;;;;;8.95;6.72;;;;;;;;;;756571;184;919234;-60
2022/04/19 09:12:34;;;;;;;12.73;7.57;;;;;;;;;;753355;185;921671;-60
2022/04/19 09:15:00;;;;;;;14.03;9.90;;;;;;;;;;750910;184;919302;-60
2022/04/19 09:17:31;;;;;;;20.60;13.87;;;;;;;;;;754566;184;920797;-60
2022/04/19 09:20:11;;;;;;;10.43;8.80;;;;;;;;;;762471;183;920280;-60
2022/04/19 09:22:37;;;;;;;10.77;9.37;;;;;;;;;;767260;183;918708;-60
2022/04/19 09:25:09;;;;;;;12.47;9.97;;;;;;;;;;760407;183;920958;-59
2022/04/19 09:27:36;;;;;;;10.03;7.80;;;;;;;;;;752304;184;922023;-60
2022/04/19 09:30:00;;;;;;;140.60;48.43;;;;;;;;;;755752;183;1021635;-60
2022/04/19 09:32:26;;;;;;;17.70;12.50;;;;;;;;;;752852;185;918865;-60
2022/04/19 09:34:52;;;;;;;12.00;8.60;;;;;;;;;;753233;184;919993;-62
2022/04/19 09:37:18;;;;;;;11.68;9.35;;;;;;;;;;760628;183;917931;-60
2022/04/19 09:39:44;;;;;;;29.70;17.10;;;;;;;;;;764208;184;910946;-61
2022/04/19 09:42:11;;;;;;;8.70;7.20;;;;;;;;;;761905;183;921410;-61
2022/04/19 09:44:36;;;;;;;13.43;9.80;;;;;;;;;;760384;183;908545;-60
2022/04/19 09:47:02;;;;;;;11.77;9.07;;;;;;;;;;760273;184;916961;-60
2022/04/19 09:49:45;;;;;;;9.87;7.60;;;;;;;;;;753143;182;918433;-61
2022/04/19 09:52:12;;;;;;;10.17;7.80;;;;;;;;;;756571;182;919377;-61
2022/04/19 09:54:38;;;;;;;16.48;9.15;;;;;;;;;;747439;186;919155;-61
2022/04/19 09:57:09;;;;;;;11.97;10.17;;;;;;;;;;752140;184;630059;-62
2022/04/19 09:59:34;;;;;;;16.20;11.93;;;;;;;;;;755119;186;714379;-61
2022/04/19 10:09:36;;;;;;;13.40;10.20;;;;;;;;;;759158;184;918989;-60
2022/04/19 10:12:01;;;;;;;12.80;9.07;;;;;;;;;;739814;189;919170;-61
2022/04/19 10:14:27;;;;;;;11.93;9.40;;;;;;;;;;719520;192;918894;-61
2022/04/19 10:16:53;;;;;;;9.50;7.83;;;;;;;;;;752272;184;919504;-62
2022/04/19 10:19:19;;;;;;;11.90;8.33;;;;;;;;;;761816;184;919421;-61
2022/04/19 10:21:45;;;;;;;13.43;9.57;;;;;;;;;;752636;184;920133;-62
2022/04/19 10:24:12;;;;;;;11.33;8.87;;;;;;;;;;753942;183;950916;-62
2022/04/19 10:26:45;;;;;;;12.80;9.87;;;;;;;;;;762395;180;919162;-62
2022/04/19 10:29:14;;;;;;;12.00;9.53;;;;;;;;;;763603;184;919044;-62
2022/04/19 10:31:40;;;;;;;17.00;10.37;;;;;;;;;;755492;184;918891;-62
2022/04/19 10:34:06;;;;;;;11.80;9.60;;;;;;;;;;758214;183;923944;-62
2022/04/19 10:36:34;;;;;;;14.03;9.93;;;;;;;;;;762860;184;918721;-62
2022/04/19 10:39:06;;;;;;;12.73;9.53;;;;;;;;;;755761;184;921306;-63
2022/04/19 10:41:39;;;;;;;10.13;8.05;;;;;;;;;;759685;183;919727;-63
2022/04/19 10:44:10;;;;;;;9.70;7.37;;;;;;;;;;754471;184;971600;-62
2022/04/19 10:46:35;;;;;;;12.70;9.53;;;;;;;;;;757826;184;918589;-62
2022/04/19 10:49:09;;;;;;;13.03;9.33;;;;;;;;;;758628;184;914988;-63
2022/04/19 10:51:35;;;;;;;13.53;10.07;;;;;;;;;;753989;183;920118;-63
2022/04/19 10:54:01;;;;;;;11.77;8.93;;;;;;;;;;754664;184;915556;-63
2022/04/19 10:56:27;;;;;;;9.88;8.75;;;;;;;;;;761071;184;1017096;-63
2022/04/19 10:58:54;;;;;;;10.17;7.20;;;;;;;;;;758830;184;916251;-64
2022/04/19 11:01:25;;;;;;;9.57;7.80;;;;;;;;;;758624;182;915444;-63
2022/04/19 11:03:52;;;;;;;9.80;7.00;;;;;;;;;;757825;182;916719;-64
2022/04/19 11:06:22;;;;;;;10.90;7.33;;;;;;;;;;761486;184;915328;-64
2022/04/19 11:08:49;;;;;;;11.37;5.87;;;;;;;;;;763998;183;919416;-64
2022/04/19 11:13:46;;;;;;;8.17;5.93;;;;;;;;;;760255;183;1021699;-64
2022/04/19 11:16:13;;;;;;;14.50;7.97;;;;;;;;;;755409;184;918798;-64
2022/04/19 11:18:52;;;;;;;8.77;5.20;;;;;;;;;;754999;185;919300;-64
2022/04/19 11:21:18;;;;;;;9.17;6.20;;;;;;;;;;753354;183;930299;-63
2022/04/19 11:23:44;;;;;;;9.45;6.62;;;;;;;;;;753115;183;1123512;-64
2022/04/19 11:26:16;;;;;;;8.93;6.10;;;;;;;;;;760304;184;918902;-64
2022/04/19 11:28:41;;;;;;;7.77;6.50;;;;;;;;;;763348;183;919777;-63
2022/04/19 11:31:07;;;;;;;7.97;6.53;;;;;;;;;;758715;184;918824;-63
2022/04/19 11:33:33;;;;;;;7.93;6.37;;;;;;;;;;757274;183;918557;-65
2022/04/19 11:36:00;;;;;;;7.90;6.70;;;;;;;;;;768982;179;918759;-63
2022/04/19 11:38:26;;;;;;;50.60;16.50;;;;;;;;;;757665;184;919605;-64
2022/04/19 11:48:26;;;;;;;26.20;19.87;;;;;;;;;;759367;185;919412;-65
2022/04/19 11:50:53;;;;;;;9.93;7.60;;;;;;;;;;746155;184;1016816;-63
2022/04/19 11:53:18;;;;;;;19.87;13.80;;;;;;;;;;756860;183;919067;-64
2022/04/19 11:55:45;;;;;;;8.90;7.53;;;;;;;;;;762435;184;918680;-64
2022/04/19 11:58:10;;;;;;;14.53;10.00;;;;;;;;;;761145;184;619141;-64
2022/04/19 12:00:36;;;;;;;8.87;6.60;;;;;;;;;;758645;184;918937;-64
2022/04/19 12:03:03;;;;;;;6.03;4.80;;;;;;;;;;764244;184;920125;-64
2022/04/19 12:05:30;;;;;;;9.47;6.80;;;;;;;;;;759268;181;919295;-65
2022/04/19 12:07:55;;;;;;;7.77;6.20;;;;;;;;;;758770;184;921165;-65
2022/04/19 12:10:20;;;;;;;9.57;6.80;;;;;;;;;;762748;184;1021479;-66
2022/04/19 12:12:46;;;;;;;10.63;6.33;;;;;;;;;;761923;183;919583;-65
2022/04/19 12:15:12;;;;;;;8.90;6.60;;;;;;;;;;758193;183;919894;-65
2022/04/19 12:17:43;;;;;;;22.67;14.43;;;;;;;;;;764882;183;916778;-65
2022/04/19 12:20:09;;;;;;;10.03;7.27;;;;;;;;;;769787;183;619065;-66
2022/04/19 12:22:35;;;;;;;8.30;6.83;;;;;;;;;;763182;183;917536;-65
2022/04/19 12:25:02;;;;;;;9.37;5.80;;;;;;;;;;758898;184;919815;-65
2022/04/19 12:27:27;;;;;;;10.33;7.20;;;;;;;;;;767518;183;919228;-65
2022/04/19 12:29:54;;;;;;;8.80;6.93;;;;;;;;;;765480;183;919382;-65
2022/04/19 12:32:20;;;;;;;8.50;6.60;;;;;;;;;;756855;184;919181;-65
2022/04/19 12:34:46;;;;;;;7.87;5.60;;;;;;;;;;748870;184;1021067;-65
2022/04/19 12:37:13;;;;;;;9.03;6.27;;;;;;;;;;758754;183;919509;-65
2022/04/19 12:39:39;;;;;;;9.20;5.90;;;;;;;;;;761461;183;917947;-66
2022/04/19 12:42:05;;;;;;;8.90;6.43;;;;;;;;;;755146;182;918623;-66
2022/04/19 12:44:30;;;;;;;8.23;6.13;;;;;;;;;;758814;184;918867;-66
2022/04/19 12:46:57;;;;;;;14.90;6.80;;;;;;;;;;757590;183;919169;-65
2022/04/19 12:49:23;;;;;;;11.37;6.47;;;;;;;;;;758447;184;918760;-65
2022/04/19 12:51:55;;;;;;;9.57;6.00;;;;;;;;;;764022;184;919786;-65
2022/04/19 12:54:20;;;;;;;10.43;6.00;;;;;;;;;;769011;183;919012;-66
2022/04/19 12:56:52;;;;;;;7.97;6.80;;;;;;;;;;751637;183;960442;-63
2022/04/19 12:59:18;;;;;;;10.30;6.90;;;;;;;;;;752813;184;921419;-66
2022/04/19 13:01:44;;;;;;;9.20;6.57;;;;;;;;;;758181;184;917244;-65
2022/04/19 13:04:10;;;;;;;9.60;5.53;;;;;;;;;;756649;184;918705;-65
2022/04/19 13:14:10;;;;;;;7.43;5.80;;;;;;;;;;761921;183;1020381;-66
2022/04/19 13:16:36;;;;;;;13.67;9.10;;;;;;;;;;756806;184;919593;-67
2022/04/19 13:19:02;;;;;;;6.22;4.80;;;;;;;;;;754414;184;1122880;-65
2022/04/19 13:21:28;;;;;;;7.27;5.00;;;;;;;;;;761163;184;923942;-65
2022/04/19 13:23:55;;;;;;;9.07;6.37;;;;;;;;;;758272;183;918704;-66
2022/04/19 13:26:20;;;;;;;9.10;6.60;;;;;;;;;;759557;183;917998;-65
2022/04/19 13:28:45;;;;;;;13.20;7.07;;;;;;;;;;768975;183;915624;-65
2022/04/19 13:31:11;;;;;;;9.60;6.57;;;;;;;;;;753697;183;958996;-66
2022/04/19 13:33:37;;;;;;;8.67;5.87;;;;;;;;;;757121;182;1326993;-66
2022/04/19 13:36:03;;;;;;;11.50;6.37;;;;;;;;;;755252;184;918180;-65
2022/04/19 13:38:35;;;;;;;7.07;5.10;;;;;;;;;;768432;183;635622;-65
2022/04/19 13:40:55;;;;;;;7.70;5.60;;;;;;;;;;757945;183;914446;-65
2022/04/19 13:43:21;;;;;;;7.17;5.33;;;;;;;;;;753175;184;916231;-65
2022/04/19 13:45:47;;;;;;;9.90;6.10;;;;;;;;;;761874;184;915404;-65
2022/04/19 13:48:12;;;;;;;7.87;5.30;;;;;;;;;;756523;184;918997;-65
2022/04/19 13:50:38;;;;;;;9.30;5.93;;;;;;;;;;752423;184;919468;-66
2022/04/19 13:53:05;;;;;;;7.63;6.13;;;;;;;;;;762733;184;918383;-65
2022/04/19 13:55:30;;;;;;;6.80;5.70;;;;;;;;;;756247;183;624626;-66
2022/04/19 13:57:56;;;;;;;8.77;6.00;;;;;;;;;;755133;184;866852;-65
2022/04/19 14:00:23;;;;;;;7.40;5.83;;;;;;;;;;754955;183;919075;-65
2022/04/19 14:02:48;;;;;;;7.90;5.87;;;;;;;;;;761868;183;920500;-68
2022/04/19 14:05:14;;;;;;;6.00;5.40;;;;;;;;;;758474;183;919552;-65
2022/04/19 14:07:40;;;;;;;8.50;5.93;;;;;;;;;;760940;184;918771;-64
2022/04/19 14:10:06;;;;;;;8.50;5.60;;;;;;;;;;762183;184;1396282;-65
2022/04/19 14:12:32;;;;;;;7.97;6.13;;;;;;;;;;758189;184;626916;-65
2022/04/19 14:14:58;;;;;;;7.80;5.60;;;;;;;;;;754296;181;918717;-65
2022/04/19 14:17:23;;;;;;;9.77;7.93;;;;;;;;;;756217;184;918356;-66
2022/04/19 14:19:51;;;;;;;20.30;11.60;;;;;;;;;;761695;183;919426;-64
2022/04/19 14:22:17;;;;;;;11.70;7.87;;;;;;;;;;758621;184;919756;-65
2022/04/19 14:24:43;;;;;;;8.73;6.57;;;;;;;;;;752632;184;917360;-65
2022/04/19 14:27:09;;;;;;;11.33;8.40;;;;;;;;;;761873;183;919555;-65
2022/04/19 14:34:38;;;;;;;13.60;8.17;;;;;;;;;;758228;184;919172;-65
2022/04/19 14:37:04;;;;;;;8.90;7.20;;;;;;;;;;763539;182;917353;-65
2022/04/19 14:39:30;;;;;;;12.40;7.50;;;;;;;;;;757783;184;919627;-65
2022/04/19 14:41:56;;;;;;;9.87;8.10;;;;;;;;;;757215;184;918303;-66
2022/04/19 14:44:21;;;;;;;10.70;8.40;;;;;;;;;;764021;184;919056;-64
2022/04/19 14:46:47;;;;;;;9.63;6.40;;;;;;;;;;750255;184;1123230;-66
2022/04/19 14:49:13;;;;;;;14.93;10.70;;;;;;;;;;760051;183;918750;-64
2022/04/19 14:54:10;;;;;;;26.30;13.90;;;;;;;;;;761247;183;919741;-63
2022/04/19 14:56:36;;;;;;;13.33;9.03;;;;;;;;;;756024;183;919331;-60
2022/04/19 14:59:02;;;;;;;9.73;7.40;;;;;;;;;;752931;183;921536;-60
2022/04/19 15:01:28;;;;;;;11.63;7.00;;;;;;;;;;760499;183;919297;-61
2022/04/19 15:03:54;;;;;;;18.73;11.80;;;;;;;;;;755561;183;918941;-59
2022/04/19 15:06:20;;;;;;;15.90;12.77;;;;;;;;;;754894;184;920116;-61